Time;durP1;ratioP1;P1;durP2;ratioP2;P2;SDS_P1;SDS_P2;PMS_P1;PMS_P2;Temp;Humidity;BMP_temperature;BMP_pressure;BME280_temperature;BME280_humidity;BME280_pressure;Samples;Min_cycle;Max_cycle;Signal;HPM_P1;HPM_P2
2023/04/10 00:00:55;;;;;;;11.98;8.50;;;8.90;99.90;;;;;;4988352;28;20051;-76
2023/04/10 00:03:23;;;;;;;11.15;7.60;;;8.80;99.90;;;;;;5023611;28;20309;-81
2023/04/10 00:05:49;;;;;;;11.85;9.20;;;8.80;99.90;;;;;;5029175;28;20468;-79
2023/04/10 00:08:16;;;;;;;12.30;8.73;;;8.80;99.90;;;;;;4976686;28;20048;-76
2023/04/10 00:10:42;;;;;;;10.13;8.00;;;8.70;99.90;;;;;;5009306;28;20040;-80
2023/04/10 00:13:08;;;;;;;9.75;7.32;;;8.70;99.90;;;;;;5008202;28;20040;-75
2023/04/10 00:15:34;;;;;;;9.15;6.85;;;8.70;99.90;;;;;;5033238;28;20036;-76
2023/04/10 00:18:01;;;;;;;10.13;7.25;;;8.60;99.90;;;;;;5015350;28;20502;-78
2023/04/10 00:20:27;;;;;;;10.18;7.30;;;8.60;99.90;;;;;;5011820;28;20048;-80
2023/04/10 00:22:53;;;;;;;11.30;8.70;;;8.60;99.90;;;;;;5008008;28;20024;-76
2023/04/10 00:25:21;;;;;;;9.27;7.07;;;8.50;99.90;;;;;;4995293;28;20032;-77
2023/04/10 00:27:48;;;;;;;10.27;7.70;;;8.50;99.90;;;;;;5030197;28;20063;-76
2023/04/10 00:30:14;;;;;;;9.65;7.70;;;8.50;99.90;;;;;;5026079;28;20032;-79
2023/04/10 00:32:42;;;;;;;12.85;9.30;;;8.50;99.90;;;;;;5024899;28;20033;-76
2023/04/10 00:35:09;;;;;;;10.10;7.55;;;8.50;99.90;;;;;;5027299;28;20406;-75
2023/04/10 00:37:36;;;;;;;10.25;8.23;;;8.50;99.90;;;;;;5010490;28;20040;-78
2023/04/10 00:40:03;;;;;;;11.68;8.93;;;8.50;99.90;;;;;;4995719;28;20688;-78
2023/04/10 00:42:29;;;;;;;12.77;9.05;;;8.40;99.90;;;;;;5012203;28;20913;-79
2023/04/10 00:44:56;;;;;;;10.38;7.40;;;8.50;99.90;;;;;;5019844;28;20043;-80
2023/04/10 00:47:22;;;;;;;9.02;7.18;;;8.50;99.90;;;;;;4993665;28;20604;-83
2023/04/10 00:49:49;;;;;;;9.15;7.53;;;8.40;99.90;;;;;;4992947;28;20035;-78
2023/04/10 00:52:15;;;;;;;9.07;6.53;;;8.40;99.90;;;;;;5003408;28;20052;-76
2023/04/10 00:54:42;;;;;;;12.40;8.18;;;8.40;99.90;;;;;;5009039;28;20079;-80
2023/04/10 00:57:10;;;;;;;8.63;6.40;;;8.40;99.90;;;;;;5029635;28;20033;-80
2023/04/10 00:59:38;;;;;;;10.38;7.32;;;8.30;99.90;;;;;;5011037;28;20088;-80
2023/04/10 01:02:04;;;;;;;13.82;9.77;;;8.30;99.90;;;;;;5007935;28;20036;-79
2023/04/10 01:04:32;;;;;;;11.52;7.70;;;8.40;99.90;;;;;;5030160;28;20044;-83
2023/04/10 01:07:22;;;;;;;8.63;6.03;;;8.40;99.90;;;;;;5009967;28;20118;-77
2023/04/10 01:09:54;;;;;;;8.07;5.40;;;8.30;99.90;;;;;;4992760;28;20041;-79
2023/04/10 01:13:13;;;;;;;8.35;6.18;;;8.30;99.90;;;;;;5000892;28;20055;-79
2023/04/10 01:15:51;;;;;;;7.82;5.95;;;8.30;99.90;;;;;;4954326;28;20053;-78
2023/04/10 01:18:25;;;;;;;8.07;6.47;;;8.20;99.90;;;;;;4993557;28;20411;-81
2023/04/10 01:20:52;;;;;;;8.02;5.70;;;8.20;99.90;;;;;;5029598;28;20064;-79
2023/04/10 01:23:51;;;;;;;8.43;6.15;;;8.20;99.90;;;;;;5007921;28;20037;-79
2023/04/10 01:26:40;;;;;;;8.93;5.78;;;8.20;99.90;;;;;;5011187;28;20023;-77
2023/04/10 01:29:13;;;;;;;8.85;6.22;;;8.20;99.90;;;;;;5010789;28;20040;-79
2023/04/10 01:31:40;;;;;;;8.82;5.95;;;8.20;99.90;;;;;;4992286;28;20039;-79
2023/04/10 01:34:16;;;;;;;7.93;5.53;;;8.10;99.90;;;;;;4985739;28;20040;-76
2023/04/10 01:36:54;;;;;;;9.52;7.18;;;8.10;99.90;;;;;;5009091;28;20329;-76
2023/04/10 01:39:22;;;;;;;8.13;6.25;;;8.10;99.90;;;;;;5008067;28;20237;-77
2023/04/10 01:41:51;;;;;;;8.35;6.00;;;8.10;99.90;;;;;;5009761;28;20515;-77
2023/04/10 01:44:26;;;;;;;6.85;5.38;;;8.10;99.90;;;;;;4991910;28;20032;-81
2023/04/10 01:46:55;;;;;;;6.40;5.10;;;8.10;99.90;;;;;;5032202;28;20017;-80
2023/04/10 01:49:24;;;;;;;6.88;5.40;;;8.10;99.90;;;;;;5011863;28;20476;-78
2023/04/10 01:51:57;;;;;;;8.40;5.70;;;8.10;99.90;;;;;;5005055;28;20036;-78
2023/04/10 01:54:29;;;;;;;9.48;7.43;;;8.10;99.90;;;;;;4991301;28;20033;-77
2023/04/10 01:57:01;;;;;;;8.65;6.45;;;8.10;99.90;;;;;;5016487;28;20535;-82
2023/04/10 01:59:28;;;;;;;8.60;5.60;;;8.10;99.90;;;;;;5012141;28;20176;-79
2023/04/10 02:01:59;;;;;;;6.32;4.65;;;8.00;99.90;;;;;;5009728;28;20099;-76
2023/04/10 02:04:26;;;;;;;7.22;5.15;;;8.10;99.90;;;;;;5014466;28;20033;-80
2023/04/10 02:07:03;;;;;;;8.45;6.15;;;8.10;99.90;;;;;;5016460;28;20036;-77
2023/04/10 02:09:57;;;;;;;6.93;5.88;;;8.10;99.90;;;;;;4995294;28;20128;-79
2023/04/10 02:12:37;;;;;;;;;;;8.10;99.90;;;;;;5003841;28;20477;-76
2023/04/10 02:15:07;;;;;;;10.95;8.45;;;8.10;99.90;;;;;;5013484;28;19916;-79
2023/04/10 02:17:35;;;;;;;9.48;6.78;;;8.10;99.90;;;;;;5026971;28;20044;-82
2023/04/10 02:20:04;;;;;;;8.57;6.22;;;8.10;99.90;;;;;;5013150;28;20044;-78
2023/04/10 02:22:31;;;;;;;12.05;7.68;;;8.10;99.90;;;;;;5008646;28;20047;-82
2023/04/10 02:24:58;;;;;;;8.65;5.95;;;8.10;99.90;;;;;;4998677;28;20047;-77
2023/04/10 02:27:32;;;;;;;9.38;6.55;;;8.10;99.90;;;;;;5035975;28;20032;-79
2023/04/10 02:29:59;;;;;;;9.90;6.18;;;8.10;99.90;;;;;;5011709;28;20044;-78
2023/04/10 02:32:26;;;;;;;8.32;6.30;;;8.10;99.90;;;;;;5004432;28;20032;-76
2023/04/10 02:34:52;;;;;;;8.55;7.03;;;8.10;99.90;;;;;;4992831;28;20037;-80
2023/04/10 02:37:18;;;;;;;9.45;6.97;;;8.00;99.90;;;;;;5012924;28;20435;-77
2023/04/10 02:39:45;;;;;;;10.43;7.20;;;8.00;99.90;;;;;;4997544;28;20036;-78
2023/04/10 02:42:11;;;;;;;8.13;6.55;;;8.00;99.90;;;;;;4996402;28;20040;-76
2023/04/10 02:44:40;;;;;;;9.82;6.90;;;7.90;99.90;;;;;;4999946;28;20604;-76
2023/04/10 02:47:07;;;;;;;8.43;6.85;;;7.90;99.90;;;;;;5004687;28;20045;-76
2023/04/10 02:49:35;;;;;;;9.45;7.55;;;7.90;99.90;;;;;;5005607;28;20033;-77
2023/04/10 02:52:08;;;;;;;9.30;7.07;;;7.90;99.90;;;;;;5008455;28;20036;-78
2023/04/10 02:54:35;;;;;;;6.72;5.35;;;7.90;99.90;;;;;;5011322;28;20043;-81
2023/04/10 02:57:01;;;;;;;8.48;6.22;;;7.80;99.90;;;;;;4992651;28;20036;-76
2023/04/10 02:59:28;;;;;;;9.32;6.90;;;7.80;99.90;;;;;;5011526;28;20047;-76
2023/04/10 03:01:54;;;;;;;9.40;7.53;;;7.80;99.90;;;;;;4993046;28;20515;-77
2023/04/10 03:04:20;;;;;;;9.73;7.28;;;7.80;99.90;;;;;;5009394;28;20043;-80
2023/04/10 03:06:47;;;;;;;10.30;8.27;;;7.80;99.90;;;;;;5014564;28;20025;-81
2023/04/10 03:09:13;;;;;;;9.52;7.32;;;7.70;99.90;;;;;;5014152;28;20406;-76
2023/04/10 03:11:39;;;;;;;7.90;6.60;;;7.70;99.90;;;;;;4993436;28;20490;-81
2023/04/10 03:14:08;;;;;;;10.02;6.88;;;7.60;99.90;;;;;;5006155;28;20562;-76
2023/04/10 03:16:34;;;;;;;8.77;6.32;;;7.60;99.90;;;;;;4995902;28;21660;-76
2023/04/10 03:19:03;;;;;;;8.02;6.65;;;7.60;99.90;;;;;;4996969;28;20045;-76
2023/04/10 03:21:30;;;;;;;9.15;7.35;;;7.50;99.90;;;;;;4985996;28;20052;-76
2023/04/10 03:23:57;;;;;;;9.40;6.93;;;7.50;99.90;;;;;;5003278;28;20036;-79
2023/04/10 03:26:24;;;;;;;10.45;8.00;;;7.50;99.90;;;;;;4995638;28;20037;-82
2023/04/10 03:28:51;;;;;;;8.60;6.55;;;7.40;99.90;;;;;;5010131;28;20127;-76
2023/04/10 03:31:17;;;;;;;8.13;5.75;;;7.40;99.90;;;;;;5005516;28;20043;-77
2023/04/10 03:33:45;;;;;;;9.63;7.40;;;7.40;99.90;;;;;;5004776;28;20048;-75
2023/04/10 03:36:11;;;;;;;11.48;7.35;;;7.30;99.90;;;;;;4989706;28;20048;-76
2023/04/10 03:38:37;;;;;;;9.90;7.50;;;7.20;99.90;;;;;;5006751;28;20037;-77
2023/04/10 03:41:05;;;;;;;9.43;7.70;;;7.20;99.90;;;;;;4988751;28;20388;-78
2023/04/10 03:43:32;;;;;;;10.30;8.07;;;7.20;99.90;;;;;;4999465;28;20044;-78
2023/04/10 03:46:01;;;;;;;10.48;7.85;;;7.10;99.90;;;;;;5009740;28;20067;-76
2023/04/10 03:48:29;;;;;;;8.95;6.93;;;7.20;99.90;;;;;;5006461;28;20037;-76
2023/04/10 03:50:55;;;;;;;10.30;7.60;;;7.10;99.90;;;;;;5004212;28;20048;-80
2023/04/10 03:53:23;;;;;;;8.88;6.63;;;7.10;99.90;;;;;;4999297;28;20021;-77
2023/04/10 03:55:51;;;;;;;9.38;6.70;;;7.10;99.90;;;;;;4988648;28;21411;-78
2023/04/10 03:58:18;;;;;;;10.63;7.82;;;7.00;99.90;;;;;;5006023;28;20029;-77
2023/04/10 04:00:45;;;;;;;9.52;7.30;;;7.00;99.90;;;;;;5004010;28;20051;-77
2023/04/10 04:03:37;;;;;;;9.82;7.13;;;7.00;99.90;;;;;;5016400;28;20059;-75
2023/04/10 04:06:22;;;;;;;9.98;7.10;;;6.90;99.90;;;;;;5011935;28;20051;-77
2023/04/10 04:09:06;;;;;;;8.85;7.00;;;6.90;99.90;;;;;;5010492;28;20704;-77
2023/04/10 04:11:52;;;;;;;8.95;7.32;;;6.90;99.90;;;;;;5006578;28;20483;-75
2023/04/10 04:14:37;;;;;;;8.45;6.80;;;6.90;99.90;;;;;;5006078;28;20040;-77
2023/04/10 04:17:42;;;;;;;12.20;9.48;;;6.90;99.90;;;;;;4943833;28;20054;-77
2023/04/10 04:20:09;;;;;;;9.55;8.00;;;6.80;99.90;;;;;;4941561;28;20062;-75
2023/04/10 04:22:54;;;;;;;8.57;6.63;;;6.80;99.90;;;;;;4977799;28;20048;-76
2023/04/10 04:25:44;;;;;;;8.32;6.85;;;6.80;99.90;;;;;;5024868;28;20040;-77
2023/04/10 04:28:23;;;;;;;10.52;7.90;;;6.70;99.90;;;;;;5011244;28;20029;-76
2023/04/10 04:31:10;;;;;;;9.73;7.40;;;6.70;99.90;;;;;;5010619;28;20045;-75
2023/04/10 04:33:55;;;;;;;9.18;6.78;;;6.70;99.90;;;;;;5018042;28;20071;-75
2023/04/10 04:36:27;;;;;;;;;;;6.70;99.90;;;;;;5006464;28;20035;-78
2023/04/10 04:39:15;;;;;;;10.20;6.40;;;6.70;99.90;;;;;;5007774;28;19916;-78
2023/04/10 04:42:09;;;;;;;9.57;7.68;;;6.60;99.90;;;;;;4975459;28;20032;-78
2023/04/10 04:44:54;;;;;;;8.10;6.53;;;6.60;99.90;;;;;;5026998;28;20032;-78
2023/04/10 04:47:36;;;;;;;10.55;8.02;;;6.60;99.90;;;;;;5007540;28;20703;-79
2023/04/10 04:50:17;;;;;;;10.20;7.35;;;6.60;99.90;;;;;;4982007;28;20055;-76
2023/04/10 04:53:02;;;;;;;8.93;6.32;;;6.60;99.90;;;;;;5024544;28;20036;-76
2023/04/10 04:56:07;;;;;;;9.27;7.27;;;6.60;99.90;;;;;;4967421;28;20515;-76
2023/04/10 04:59:08;;;;;;;10.85;8.00;;;6.60;99.90;;;;;;4960294;28;20050;-75
2023/04/10 05:01:58;;;;;;;8.93;7.28;;;6.70;99.90;;;;;;4984207;28;20399;-77
2023/04/10 05:04:34;;;;;;;8.45;6.25;;;6.70;99.90;;;;;;4985066;28;20045;-78
2023/04/10 05:07:19;;;;;;;7.43;5.57;;;6.70;99.90;;;;;;5026207;28;20475;-75
2023/04/10 05:09:46;;;;;;;8.40;6.88;;;6.70;99.90;;;;;;5008119;28;20487;-78
2023/04/10 05:12:47;;;;;;;7.55;5.70;;;6.80;99.90;;;;;;4940361;28;20114;-76
2023/04/10 05:15:30;;;;;;;9.57;7.05;;;6.80;99.90;;;;;;5004191;28;20635;-77
2023/04/10 05:18:09;;;;;;;11.35;7.53;;;6.80;99.90;;;;;;5006187;28;20045;-76
2023/04/10 05:20:45;;;;;;;13.10;9.93;;;6.90;99.90;;;;;;4987785;28;20053;-78
2023/04/10 05:23:44;;;;;;;10.75;7.53;;;6.90;99.90;;;;;;4962048;28;20051;-81
2023/04/10 05:26:27;;;;;;;10.00;6.15;;;6.90;99.90;;;;;;4995535;28;20041;-79
2023/04/10 05:29:13;;;;;;;9.65;6.68;;;7.00;99.90;;;;;;5012094;28;20044;-76
2023/04/10 05:32:17;;;;;;;9.35;7.28;;;7.00;99.90;;;;;;4947295;28;20895;-77
2023/04/10 05:35:01;;;;;;;10.73;8.02;;;7.10;99.90;;;;;;4968450;28;20716;-78
2023/04/10 05:37:40;;;;;;;11.02;8.35;;;7.10;99.90;;;;;;4989447;28;20060;-75
2023/04/10 05:40:22;;;;;;;11.05;8.73;;;7.20;99.90;;;;;;4992524;28;20146;-75
2023/04/10 05:43:07;;;;;;;9.90;7.13;;;7.30;99.90;;;;;;5007083;28;20043;-76
2023/04/10 05:45:56;;;;;;;12.13;7.68;;;7.40;99.90;;;;;;4994411;28;20036;-76
2023/04/10 05:48:40;;;;;;;11.60;7.55;;;7.40;99.90;;;;;;5012915;28;20421;-75
2023/04/10 05:51:21;;;;;;;12.23;8.75;;;7.50;99.90;;;;;;5010297;28;20040;-78
2023/04/10 05:54:16;;;;;;;11.90;9.70;;;7.50;99.90;;;;;;5003316;28;20483;-76
2023/04/10 05:57:21;;;;;;;13.57;10.80;;;7.60;99.90;;;;;;4938365;28;22583;-78
2023/04/10 06:00:11;;;;;;;14.25;10.40;;;7.70;99.90;;;;;;4951321;28;20053;-80
2023/04/10 06:02:40;;;;;;;13.77;9.35;;;7.80;99.90;;;;;;4998686;28;20049;-75
2023/04/10 06:05:12;;;;;;;12.18;9.35;;;7.80;99.90;;;;;;5002818;28;20033;-77
2023/04/10 06:07:39;;;;;;;13.45;10.00;;;8.00;99.90;;;;;;5009324;28;20071;-76
2023/04/10 06:10:06;;;;;;;14.15;10.68;;;8.10;99.90;;;;;;5013434;28;20080;-75
2023/04/10 06:12:35;;;;;;;12.20;8.77;;;8.20;99.90;;;;;;4987870;28;20430;-78
2023/04/10 06:15:03;;;;;;;8.90;7.45;;;8.30;99.90;;;;;;5023379;28;20048;-83
2023/04/10 06:17:34;;;;;;;12.55;9.23;;;8.40;99.90;;;;;;5003595;28;20047;-76
2023/04/10 06:20:03;;;;;;;12.23;9.80;;;8.50;99.90;;;;;;4975185;28;20415;-75
2023/04/10 06:22:30;;;;;;;11.07;9.27;;;8.50;99.90;;;;;;4982703;28;20684;-75
2023/04/10 06:24:56;;;;;;;14.52;11.27;;;8.60;99.90;;;;;;4989927;28;20478;-80
2023/04/10 06:27:22;;;;;;;13.57;10.52;;;8.70;99.90;;;;;;4994949;28;20040;-78
2023/04/10 06:29:49;;;;;;;12.55;10.65;;;8.80;99.90;;;;;;4999145;28;20039;-77
2023/04/10 06:32:20;;;;;;;13.85;10.10;;;8.90;99.90;;;;;;5006087;28;20045;-77
2023/04/10 06:34:46;;;;;;;11.93;9.38;;;9.10;99.90;;;;;;5029371;28;20365;-76
2023/04/10 06:37:12;;;;;;;12.43;10.23;;;9.10;99.90;;;;;;4999338;28;20041;-77
2023/04/10 06:39:39;;;;;;;11.07;8.95;;;9.20;99.90;;;;;;4995839;28;20046;-80
2023/04/10 06:42:05;;;;;;;10.85;8.48;;;9.40;99.90;;;;;;4989929;28;20045;-78
2023/04/10 06:44:51;;;;;;;14.05;10.38;;;9.50;99.90;;;;;;4994442;28;20036;-78
2023/04/10 06:47:17;;;;;;;12.18;9.35;;;9.60;99.90;;;;;;5034069;28;20043;-81
2023/04/10 06:49:43;;;;;;;10.40;8.88;;;9.70;99.90;;;;;;5015775;28;20035;-79
2023/04/10 06:52:10;;;;;;;12.70;10.15;;;9.90;99.90;;;;;;5028906;28;20041;-80
2023/04/10 06:54:36;;;;;;;12.95;9.77;;;10.10;99.90;;;;;;5029406;28;20033;-76
2023/04/10 06:57:02;;;;;;;9.55;8.05;;;10.20;99.90;;;;;;5013284;28;20063;-75
2023/04/10 06:59:30;;;;;;;10.27;8.38;;;10.30;99.90;;;;;;5032500;28;20028;-80
2023/04/10 07:01:56;;;;;;;9.18;7.18;;;10.40;99.90;;;;;;5012125;28;20032;-78
2023/04/10 07:04:23;;;;;;;9.25;7.68;;;10.50;99.90;;;;;;5026577;28;20032;-77
2023/04/10 07:06:49;;;;;;;11.65;9.65;;;10.70;99.90;;;;;;5033391;28;20028;-81
2023/04/10 07:09:15;;;;;;;11.98;8.70;;;10.80;99.90;;;;;;4999799;28;20028;-81
2023/04/10 07:11:41;;;;;;;11.02;8.80;;;10.90;99.90;;;;;;5011767;28;20044;-77
2023/04/10 07:14:08;;;;;;;11.73;9.43;;;11.00;99.90;;;;;;5028301;28;20471;-77
2023/04/10 07:16:34;;;;;;;13.52;9.18;;;11.10;99.90;;;;;;5011081;28;20044;-80
2023/04/10 07:19:01;;;;;;;12.27;9.20;;;11.20;99.90;;;;;;5029762;28;20463;-77
2023/04/10 07:21:27;;;;;;;13.95;10.23;;;11.30;99.90;;;;;;5007765;28;20605;-79
2023/04/10 07:23:54;;;;;;;11.50;8.70;;;11.40;99.90;;;;;;5005580;28;20265;-80
2023/04/10 07:26:20;;;;;;;10.23;9.13;;;11.50;99.90;;;;;;5010467;28;20040;-79
2023/04/10 07:28:46;;;;;;;15.68;9.60;;;11.60;99.90;;;;;;5012107;28;20638;-84
2023/04/10 07:31:13;;;;;;;10.23;8.27;;;11.70;99.90;;;;;;4995688;28;20040;-76
2023/04/10 07:33:39;;;;;;;8.50;7.18;;;11.80;99.90;;;;;;4995283;28;20487;-81
2023/04/10 07:36:06;;;;;;;7.65;6.70;;;11.90;99.90;;;;;;5012121;28;20028;-80
2023/04/10 07:38:32;;;;;;;9.30;6.50;;;12.00;99.90;;;;;;5010076;28;20499;-77
2023/04/10 07:40:59;;;;;;;8.95;7.15;;;12.00;99.90;;;;;;5007452;28;20043;-76
2023/04/10 07:43:25;;;;;;;11.70;7.75;;;12.10;99.90;;;;;;4985776;28;20119;-84
2023/04/10 07:45:52;;;;;;;10.27;7.93;;;12.20;99.90;;;;;;5029080;28;20067;-79
2023/04/10 07:48:18;;;;;;;11.45;8.02;;;12.20;99.90;;;;;;5010184;28;20040;-82
2023/04/10 07:50:45;;;;;;;8.35;7.05;;;12.20;99.90;;;;;;5007805;28;20674;-78
2023/04/10 07:53:11;;;;;;;8.25;6.63;;;12.30;99.90;;;;;;5026759;28;20043;-85
2023/04/10 07:55:38;;;;;;;13.93;8.30;;;12.40;99.90;;;;;;5015050;28;20047;-85
2023/04/10 07:58:05;;;;;;;8.65;6.80;;;12.50;99.90;;;;;;5032350;28;20063;-75
2023/04/10 08:00:32;;;;;;;8.65;6.45;;;12.50;99.90;;;;;;5008410;28;20033;-75
2023/04/10 08:02:58;;;;;;;6.53;5.22;;;12.50;99.90;;;;;;5004262;28;20033;-77
2023/04/10 08:05:25;;;;;;;7.65;6.57;;;12.50;99.90;;;;;;5029727;28;20055;-75
2023/04/10 08:07:51;;;;;;;8.00;6.78;;;12.60;99.90;;;;;;5011673;28;20948;-79
2023/04/10 08:10:18;;;;;;;7.90;6.45;;;12.80;99.90;;;;;;5027151;28;22991;-76
2023/04/10 08:12:44;;;;;;;8.35;6.10;;;12.80;99.90;;;;;;5025806;28;20032;-86
2023/04/10 08:15:10;;;;;;;6.60;5.90;;;12.90;99.90;;;;;;5014209;28;21325;-75
2023/04/10 08:17:37;;;;;;;8.45;7.00;;;13.10;99.90;;;;;;5034818;28;20040;-80
2023/04/10 08:20:04;;;;;;;6.95;6.22;;;13.20;99.90;;;;;;5011225;28;20684;-76
2023/04/10 08:22:30;;;;;;;7.03;5.70;;;13.40;99.90;;;;;;5001652;28;20044;-81
2023/04/10 08:24:56;;;;;;;6.45;5.75;;;13.70;99.90;;;;;;5008965;28;20503;-80
2023/04/10 08:27:23;;;;;;;5.80;5.20;;;14.00;99.90;;;;;;4981029;28;20132;-78
2023/04/10 08:29:49;;;;;;;9.55;5.88;;;14.20;99.90;;;;;;5028523;28;20037;-76
2023/04/10 08:32:15;;;;;;;6.10;5.50;;;14.40;99.90;;;;;;5001391;28;20041;-78
2023/04/10 08:34:41;;;;;;;5.82;5.22;;;14.50;99.90;;;;;;5031365;28;20040;-79
2023/04/10 08:37:11;;;;;;;8.75;5.65;;;14.60;99.90;;;;;;5012638;28;20119;-80
2023/04/10 08:39:38;;;;;;;5.65;5.05;;;14.80;99.90;;;;;;5012702;28;20032;-78
2023/04/10 08:42:06;;;;;;;9.65;5.47;;;14.90;99.90;;;;;;4971685;28;20618;-76
2023/04/10 08:44:32;;;;;;;8.80;6.15;;;15.00;99.90;;;;;;4974324;28;20032;-77
2023/04/10 08:46:59;;;;;;;5.78;5.18;;;15.00;99.90;;;;;;5028321;28;20028;-80
2023/04/10 08:49:46;;;;;;;5.93;5.15;;;15.00;99.70;;;;;;4993577;28;20043;-79
2023/04/10 08:52:21;;;;;;;6.40;5.45;;;15.10;99.60;;;;;;4963376;28;20407;-78
2023/04/10 08:54:52;;;;;;;6.75;4.63;;;15.10;99.40;;;;;;5014070;28;20114;-76
2023/04/10 08:57:21;;;;;;;6.95;5.30;;;15.10;99.10;;;;;;5035156;28;20051;-77
2023/04/10 08:59:48;;;;;;;7.07;6.05;;;15.20;98.80;;;;;;5013787;28;20385;-83
2023/04/10 09:02:15;;;;;;;7.07;5.57;;;15.30;98.50;;;;;;5000164;28;20045;-79
2023/04/10 09:04:50;;;;;;;6.88;5.82;;;15.30;98.20;;;;;;5015502;28;20043;-75
2023/04/10 09:07:16;;;;;;;5.80;5.20;;;15.40;98.00;;;;;;5036713;28;20040;-75
2023/04/10 09:09:43;;;;;;;8.90;7.03;;;15.50;97.70;;;;;;5011839;28;20036;-76
2023/04/10 09:12:12;;;;;;;7.07;5.72;;;15.60;97.50;;;;;;5005146;28;20044;-80
2023/04/10 09:14:40;;;;;;;6.20;5.60;;;15.70;97.30;;;;;;5032157;28;20435;-75
2023/04/10 09:17:16;;;;;;;4.90;4.40;;;15.80;96.60;;;;;;5011089;28;21034;-82
2023/04/10 09:19:45;;;;;;;6.00;5.18;;;15.80;96.50;;;;;;5027061;28;20052;-75
2023/04/10 09:22:12;;;;;;;6.45;5.75;;;15.90;96.60;;;;;;5020902;28;20036;-82
2023/04/10 09:24:41;;;;;;;6.78;5.68;;;15.80;96.10;;;;;;5006927;28;20032;-77
2023/04/10 09:27:08;;;;;;;5.63;5.13;;;15.70;96.20;;;;;;4993116;28;20055;-76
2023/04/10 09:29:52;;;;;;;5.53;5.00;;;15.70;96.10;;;;;;5028952;28;22175;-80
2023/04/10 09:32:39;;;;;;;7.25;5.55;;;15.70;96.00;;;;;;5021204;28;20530;-76
2023/04/10 09:35:07;;;;;;;6.50;5.75;;;15.80;96.30;;;;;;5008548;28;20044;-80
2023/04/10 09:37:35;;;;;;;9.40;8.40;;;16.00;96.20;;;;;;4994089;28;20403;-77
2023/04/10 09:40:02;;;;;;;6.28;5.45;;;16.10;95.70;;;;;;5014278;28;20032;-80
2023/04/10 09:42:30;;;;;;;6.50;5.40;;;16.20;95.40;;;;;;5021661;28;20045;-74
2023/04/10 09:44:56;;;;;;;6.78;5.68;;;16.20;95.20;;;;;;5008139;28;20024;-81
2023/04/10 09:47:22;;;;;;;7.10;6.10;;;16.10;94.70;;;;;;5009374;28;20396;-75
2023/04/10 09:49:55;;;;;;;6.70;5.90;;;16.00;94.50;;;;;;4990569;28;20484;-78
2023/04/10 09:52:26;;;;;;;8.10;5.97;;;16.00;94.40;;;;;;5021586;28;20036;-82
2023/04/10 09:54:54;;;;;;;6.90;5.85;;;15.80;94.30;;;;;;5010247;28;20028;-75
2023/04/10 09:57:23;;;;;;;4.63;4.10;;;15.70;94.40;;;;;;5014348;28;20048;-78
2023/04/10 09:59:54;;;;;;;5.22;4.65;;;15.60;94.70;;;;;;5013376;28;20064;-79
2023/04/10 10:02:23;;;;;;;6.05;5.45;;;15.60;94.90;;;;;;5002679;28;20051;-77
2023/04/10 10:04:50;;;;;;;7.13;5.20;;;15.60;94.80;;;;;;5012201;28;20064;-79
2023/04/10 10:07:19;;;;;;;5.88;4.88;;;15.50;94.50;;;;;;4993652;28;20882;-76
2023/04/10 10:09:48;;;;;;;6.53;5.13;;;15.50;94.60;;;;;;5032168;28;20052;-79
2023/04/10 10:12:18;;;;;;;4.85;4.22;;;15.40;94.40;;;;;;5014839;28;20052;-75
2023/04/10 10:14:58;;;;;;;6.80;4.88;;;15.40;94.70;;;;;;5024814;28;20469;-78
2023/04/10 10:17:30;;;;;;;6.13;4.93;;;15.60;94.90;;;;;;5010904;28;20047;-76
2023/04/10 10:20:04;;;;;;;6.50;5.80;;;15.70;94.80;;;;;;5025484;28;20060;-75
2023/04/10 10:22:31;;;;;;;6.00;5.28;;;15.70;94.60;;;;;;5018243;28;20036;-76
2023/04/10 10:24:59;;;;;;;6.22;4.30;;;15.70;94.40;;;;;;5047124;28;20483;-83
2023/04/10 10:27:27;;;;;;;6.20;4.70;;;15.70;94.40;;;;;;5024812;28;20478;-80
2023/04/10 10:29:54;;;;;;;5.80;2.95;;;15.80;94.60;;;;;;5025349;28;20037;-81
2023/04/10 10:32:21;;;;;;;4.93;3.78;;;16.00;94.80;;;;;;5018281;28;20487;-81
2023/04/10 10:34:51;;;;;;;5.47;4.32;;;16.10;94.80;;;;;;5047178;28;20041;-75
2023/04/10 10:37:20;;;;;;;5.57;4.20;;;16.20;94.40;;;;;;5046653;28;20463;-76
2023/04/10 10:40:19;;;;;;;5.70;3.67;;;16.20;94.30;;;;;;5045499;28;20661;-80
2023/04/10 10:43:13;;;;;;;4.15;3.72;;;16.30;94.40;;;;;;5017238;28;20495;-77
2023/04/10 10:46:14;;;;;;;4.35;3.67;;;16.30;94.30;;;;;;5044681;28;20494;-76
2023/04/10 10:48:58;;;;;;;4.35;3.22;;;16.50;94.20;;;;;;5045310;28;20514;-83
2023/04/10 10:51:46;;;;;;;3.75;3.13;;;16.60;94.30;;;;;;5042239;28;20486;-80
2023/04/10 10:54:33;;;;;;;2.80;2.17;;;16.70;94.20;;;;;;5005822;28;20419;-84
2023/04/10 10:57:01;;;;;;;4.00;3.30;;;16.90;94.30;;;;;;5044849;28;20024;-77
2023/04/10 10:59:42;;;;;;;3.55;3.25;;;17.00;94.00;;;;;;5044380;28;20047;-84
2023/04/10 11:02:16;;;;;;;3.67;3.10;;;17.10;93.80;;;;;;5015983;28;20036;-78
2023/04/10 11:04:47;;;;;;;3.33;3.00;;;17.20;93.60;;;;;;5045059;28;20036;-81
2023/04/10 11:07:15;;;;;;;6.47;3.67;;;17.40;93.50;;;;;;5045230;28;20032;-83
2023/04/10 11:09:50;;;;;;;6.20;4.70;;;17.60;93.30;;;;;;5048176;28;20035;-78
2023/04/10 11:12:22;;;;;;;4.47;3.55;;;17.80;92.60;;;;;;5022782;28;20670;-78
2023/04/10 11:15:00;;;;;;;4.22;3.60;;;17.90;92.20;;;;;;5042858;28;20099;-77
2023/04/10 11:17:50;;;;;;;4.43;3.83;;;18.00;92.20;;;;;;5045284;28;20396;-78
2023/04/10 11:20:19;;;;;;;6.22;3.83;;;18.20;91.40;;;;;;5036180;28;20079;-76
2023/04/10 11:23:09;;;;;;;3.67;3.30;;;18.20;91.30;;;;;;5017383;28;20415;-82
2023/04/10 11:25:50;;;;;;;7.93;5.32;;;18.40;91.50;;;;;;5004893;28;20040;-83
2023/04/10 11:28:32;;;;;;;5.15;4.65;;;18.70;91.20;;;;;;5044142;28;20025;-81
2023/04/10 11:31:18;;;;;;;7.80;5.38;;;18.90;90.90;;;;;;4993389;28;20358;-78
2023/04/10 11:33:48;;;;;;;5.47;4.30;;;19.10;90.50;;;;;;5037994;28;20036;-83
2023/04/10 11:36:19;;;;;;;5.57;3.88;;;19.30;90.20;;;;;;5011172;28;20033;-78
2023/04/10 11:38:56;;;;;;;3.65;3.00;;;19.50;89.50;;;;;;5008207;28;20044;-76
2023/04/10 11:41:30;;;;;;;3.88;2.47;;;19.70;89.20;;;;;;5040125;28;20025;-76
2023/04/10 11:43:59;;;;;;;3.83;3.45;;;20.00;89.00;;;;;;5018401;28;20036;-77
2023/04/10 11:46:26;;;;;;;3.85;2.78;;;20.50;88.60;;;;;;5024510;28;20452;-83
2023/04/10 11:48:59;;;;;;;3.45;3.15;;;21.10;87.80;;;;;;5042959;28;20032;-79
2023/04/10 11:51:27;;;;;;;4.25;2.60;;;21.60;85.90;;;;;;5039644;28;20069;-79
2023/04/10 11:54:10;;;;;;;4.38;3.90;;;21.70;84.50;;;;;;5016909;28;20054;-76
2023/04/10 11:56:38;;;;;;;3.92;3.08;;;21.70;83.40;;;;;;5009161;28;20032;-81
2023/04/10 11:59:23;;;;;;;3.80;3.05;;;21.60;82.20;;;;;;5022478;28;20047;-77
2023/04/10 12:01:53;;;;;;;4.90;2.70;;;21.30;81.30;;;;;;5020055;28;20055;-77
2023/04/10 12:04:21;;;;;;;2.67;2.00;;;21.10;81.20;;;;;;5020181;28;20881;-75
2023/04/10 12:06:52;;;;;;;4.03;2.55;;;20.80;80.80;;;;;;5011081;28;20035;-80
2023/04/10 12:09:19;;;;;;;3.10;2.20;;;20.50;80.50;;;;;;5022517;28;20042;-80
2023/04/10 12:11:58;;;;;;;3.05;2.70;;;20.20;80.40;;;;;;5019453;28;20279;-80
2023/04/10 12:14:33;;;;;;;3.00;2.70;;;20.10;81.00;;;;;;5020043;28;20083;-78
2023/04/10 12:17:01;;;;;;;3.60;2.20;;;20.00;81.10;;;;;;5023929;28;20414;-78
2023/04/10 12:19:28;;;;;;;2.22;2.00;;;20.00;81.70;;;;;;5027123;28;20407;-78
2023/04/10 12:21:56;;;;;;;2.90;2.20;;;20.00;81.90;;;;;;5001008;28;20052;-76
2023/04/10 12:24:45;;;;;;;2.78;2.47;;;19.90;81.80;;;;;;5037170;28;20020;-81
2023/04/10 12:27:16;;;;;;;3.67;2.58;;;20.00;81.70;;;;;;5022611;28;20041;-79
2023/04/10 12:29:47;;;;;;;2.78;2.38;;;20.10;81.50;;;;;;5004397;28;20083;-80
2023/04/10 12:32:14;;;;;;;2.30;1.77;;;20.10;81.50;;;;;;5014646;28;20029;-78
2023/04/10 12:34:40;;;;;;;2.55;1.80;;;20.20;81.80;;;;;;5009612;28;20399;-81
2023/04/10 12:37:08;;;;;;;2.42;1.67;;;20.30;81.90;;;;;;5008803;28;20040;-79
2023/04/10 12:39:35;;;;;;;2.70;1.55;;;20.30;80.40;;;;;;5043163;28;20040;-78
2023/04/10 12:42:21;;;;;;;2.97;1.60;;;20.20;79.90;;;;;;5001061;28;20526;-81
2023/04/10 12:44:59;;;;;;;3.47;2.30;;;20.20;80.30;;;;;;5043055;28;20035;-79
2023/04/10 12:47:27;;;;;;;2.42;1.73;;;20.20;79.20;;;;;;5043204;28;20494;-78
2023/04/10 12:50:10;;;;;;;2.60;1.95;;;20.20;78.80;;;;;;5022785;28;20076;-80
2023/04/10 12:52:44;;;;;;;2.03;1.48;;;20.40;78.50;;;;;;5034895;28;20383;-77
2023/04/10 12:55:20;;;;;;;2.10;1.42;;;20.50;78.30;;;;;;5042267;28;20040;-79
2023/04/10 12:57:47;;;;;;;2.30;1.90;;;20.60;78.00;;;;;;5006635;28;20036;-76
2023/04/10 13:00:16;;;;;;;1.90;1.55;;;20.50;76.70;;;;;;5020805;28;20036;-77
2023/04/10 13:02:43;;;;;;;3.28;1.38;;;20.20;76.90;;;;;;5022712;28;20487;-83
2023/04/10 13:05:10;;;;;;;4.43;1.77;;;19.90;77.40;;;;;;5041364;28;20507;-76
2023/04/10 13:07:36;;;;;;;3.42;1.30;;;19.70;77.50;;;;;;5040857;28;20032;-76
2023/04/10 13:10:04;;;;;;;2.20;1.60;;;19.60;77.90;;;;;;5007266;28;20059;-77
2023/04/10 13:12:31;;;;;;;3.03;1.25;;;19.40;78.20;;;;;;5019436;28;20017;-81
2023/04/10 13:14:58;;;;;;;2.17;1.70;;;19.30;78.80;;;;;;5026571;28;20035;-75
2023/04/10 13:17:25;;;;;;;3.17;1.90;;;19.10;78.80;;;;;;5021919;28;20032;-77